createdAt,value
2023-03-05T00:02:24.564Z,26.60
2023-03-05T00:04:51.319Z,24.50
2023-03-05T00:09:44.611Z,24.60
2023-03-05T00:14:38.010Z,23.60
2023-03-05T00:17:04.719Z,24.20
2023-03-05T00:21:58.072Z,20.60
2023-03-05T00:26:51.378Z,25.80
2023-03-05T00:31:46.305Z,25.10
2023-03-05T00:34:15.357Z,22.00
2023-03-05T00:36:43.956Z,29.20
2023-03-05T00:39:12.240Z,23.20
2023-03-05T00:41:39.264Z,23.90
2023-03-05T00:44:06.276Z,25.80
2023-03-05T00:46:33.262Z,25.40
2023-03-05T00:48:59.966Z,24.70
2023-03-05T00:53:53.527Z,21.30
2023-03-05T00:56:20.560Z,27.00
2023-03-05T00:58:47.627Z,26.60
2023-03-05T01:01:14.686Z,24.80
2023-03-05T01:03:41.671Z,27.30
2023-03-05T01:06:11.735Z,24.80
2023-03-05T01:08:39.249Z,24.90
2023-03-05T01:11:06.932Z,27.20
2023-03-05T01:13:33.796Z,27.00
2023-03-05T01:16:01.091Z,23.60
2023-03-05T01:18:27.820Z,32.20
2023-03-05T01:20:54.484Z,33.00
2023-03-05T01:23:21.169Z,33.00
2023-03-05T01:25:57.358Z,31.00
2023-03-05T01:28:24.515Z,32.60
2023-03-05T01:30:51.313Z,24.90
2023-03-05T01:33:18.338Z,23.30
2023-03-05T01:35:49.151Z,32.00
2023-03-05T01:38:16.736Z,33.20
2023-03-05T01:40:43.966Z,34.00
2023-03-05T01:43:12.193Z,37.20
2023-03-05T01:46:00.107Z,34.70
2023-03-05T01:48:27.639Z,40.40
2023-03-05T01:50:54.521Z,36.10
2023-03-05T01:53:21.218Z,42.30
2023-03-05T01:55:48.048Z,39.20
2023-03-05T01:58:14.856Z,41.00
2023-03-05T02:00:46.182Z,36.50
2023-03-05T02:03:13.706Z,37.20
2023-03-05T02:05:43.351Z,38.50
2023-03-05T02:08:12.526Z,35.70
2023-03-05T02:10:45.122Z,35.70
2023-03-05T02:13:15.238Z,36.20
2023-03-05T02:15:42.628Z,34.70
2023-03-05T02:18:10.191Z,34.80
2023-03-05T02:20:46.609Z,38.20
2023-03-05T02:23:14.360Z,36.30
2023-03-05T02:25:41.382Z,35.90
2023-03-05T02:28:23.142Z,36.30
2023-03-05T02:30:49.965Z,35.10
2023-03-05T02:33:18.114Z,32.80
2023-03-05T02:35:46.400Z,35.60
2023-03-05T02:38:15.407Z,31.70
2023-03-05T02:40:42.470Z,36.30
2023-03-05T02:43:09.837Z,33.00
2023-03-05T02:45:37.591Z,33.70
2023-03-05T02:48:04.625Z,29.40
2023-03-05T02:50:32.167Z,32.50
2023-03-05T02:52:59.057Z,31.00
2023-03-05T02:55:25.966Z,31.90
2023-03-05T02:57:52.708Z,30.40
2023-03-05T03:00:19.688Z,28.70
2023-03-05T03:02:46.371Z,33.50
2023-03-05T03:05:13.127Z,32.30
2023-03-05T03:07:39.831Z,33.00
2023-03-05T03:10:07.217Z,30.40
2023-03-05T03:12:41.831Z,33.50
2023-03-05T03:15:09.740Z,32.90
2023-03-05T03:17:37.404Z,31.40
2023-03-05T03:20:06.157Z,31.70
2023-03-05T03:22:33.197Z,26.60
2023-03-05T03:25:01.138Z,29.70
2023-03-05T03:27:27.831Z,31.20
2023-03-05T03:32:21.193Z,31.70
2023-03-05T03:34:48.343Z,31.90
2023-03-05T03:37:15.357Z,29.60
2023-03-05T03:39:42.104Z,33.40
2023-03-05T03:42:08.777Z,29.30
2023-03-05T03:47:02.154Z,30.80
2023-03-05T03:49:28.916Z,31.40
2023-03-05T03:51:55.674Z,31.70
2023-03-05T03:54:22.475Z,31.40
2023-03-05T03:56:49.364Z,31.10
2023-03-05T03:59:16.121Z,31.90
2023-03-05T04:01:43.205Z,29.10
2023-03-05T04:04:12.422Z,34.40
2023-03-05T04:06:39.594Z,33.20
2023-03-05T04:09:08.221Z,34.30
2023-03-05T04:11:36.403Z,31.80
2023-03-05T04:14:04.029Z,27.80
2023-03-05T04:16:31.239Z,28.30
2023-03-05T04:18:57.962Z,29.00
2023-03-05T04:21:24.631Z,33.20
2023-03-05T04:26:17.892Z,30.50
2023-03-05T04:28:48.382Z,30.70
2023-03-05T04:31:15.222Z,30.40
2023-03-05T04:33:42.043Z,35.20
2023-03-05T04:36:09.146Z,30.40
2023-03-05T04:38:35.761Z,27.70
2023-03-05T04:43:29.019Z,30.50
2023-03-05T04:45:56.065Z,29.20
2023-03-05T04:48:22.884Z,27.30
2023-03-05T04:50:49.678Z,30.90
2023-03-05T04:53:16.421Z,31.10
2023-03-05T04:55:43.911Z,27.40
2023-03-05T04:58:10.691Z,29.00
2023-03-05T05:00:37.393Z,32.90
2023-03-05T05:03:04.250Z,32.80
2023-03-05T05:05:30.985Z,28.70
2023-03-05T05:07:58.717Z,29.50
2023-03-05T05:10:26.773Z,31.40
2023-03-05T05:12:53.839Z,27.50
2023-03-05T05:15:20.847Z,30.20
2023-03-05T05:17:47.766Z,29.30
2023-03-05T05:20:16.632Z,26.50
2023-03-05T05:22:44.000Z,28.40
2023-03-05T05:25:11.071Z,27.40
2023-03-05T05:27:39.707Z,27.40
2023-03-05T05:30:07.709Z,32.40
2023-03-05T05:32:34.555Z,27.60
2023-03-05T05:35:01.687Z,33.40
2023-03-05T05:37:29.969Z,30.10
2023-03-05T05:39:56.657Z,32.30
2023-03-05T05:44:51.251Z,39.20
2023-03-05T05:47:18.791Z,37.20
2023-03-05T05:49:45.733Z,29.20
2023-03-05T05:52:13.295Z,28.90
2023-03-05T05:54:40.169Z,32.60
2023-03-05T05:57:07.679Z,30.20
2023-03-05T05:59:34.569Z,30.20
2023-03-05T06:02:01.325Z,27.90
2023-03-05T06:04:28.020Z,26.90
2023-03-05T06:09:21.384Z,33.10
2023-03-05T06:14:14.769Z,33.20
2023-03-05T06:16:41.703Z,31.30
2023-03-05T06:19:11.681Z,33.70
2023-03-05T06:21:38.961Z,35.90
2023-03-05T06:24:06.229Z,34.30
2023-03-05T06:26:33.452Z,37.20
2023-03-05T06:29:00.401Z,38.50
2023-03-05T06:31:28.739Z,39.10
2023-03-05T06:33:58.149Z,35.90
2023-03-05T06:36:25.767Z,38.40
2023-03-05T06:38:53.646Z,37.40
2023-03-05T06:41:23.334Z,34.50
2023-03-05T06:43:50.305Z,40.10
2023-03-05T06:46:25.723Z,38.90
2023-03-05T06:48:55.693Z,38.40
2023-03-05T06:51:25.565Z,34.80
2023-03-05T06:53:54.150Z,33.40
2023-03-05T06:56:21.251Z,37.60
2023-03-05T06:58:50.631Z,34.30
2023-03-05T07:01:17.638Z,37.30
2023-03-05T07:03:44.867Z,35.00
2023-03-05T07:06:14.094Z,36.30
2023-03-05T07:08:40.788Z,35.00
2023-03-05T07:11:16.911Z,34.70
2023-03-05T07:13:43.972Z,35.40
2023-03-05T07:16:15.551Z,38.30
2023-03-05T07:18:42.350Z,39.60
2023-03-05T07:21:13.081Z,44.10
2023-03-05T07:23:39.827Z,42.80
2023-03-05T07:26:07.105Z,40.40
2023-03-05T07:28:34.803Z,37.00
2023-03-05T07:31:04.933Z,36.70
2023-03-05T07:33:32.381Z,36.30
2023-03-05T07:35:59.599Z,42.80
2023-03-05T07:38:26.335Z,42.30
2023-03-05T07:40:53.248Z,39.70
2023-03-05T07:43:19.865Z,37.60
2023-03-05T07:48:16.753Z,36.80
2023-03-05T07:50:44.294Z,38.10
2023-03-05T07:53:11.540Z,36.20
2023-03-05T07:55:47.724Z,36.90
2023-03-05T07:58:14.646Z,37.60
2023-03-05T08:00:41.326Z,36.90
2023-03-05T08:03:08.261Z,35.20
2023-03-05T08:05:35.182Z,37.60
2023-03-05T08:08:01.818Z,35.10
2023-03-05T08:12:55.088Z,34.40
2023-03-05T08:15:21.827Z,36.10
2023-03-05T08:17:48.607Z,38.30
2023-03-05T08:20:15.306Z,37.50
2023-03-05T08:22:42.048Z,37.10
2023-03-05T08:25:10.045Z,36.10
2023-03-05T08:27:41.048Z,38.60
2023-03-05T08:30:10.891Z,35.30
2023-03-05T08:32:37.772Z,31.20
2023-03-05T08:35:06.739Z,33.70
2023-03-05T08:37:33.721Z,36.70
2023-03-05T08:40:00.500Z,31.00
2023-03-05T08:42:27.289Z,34.50
2023-03-05T08:44:54.039Z,35.90
2023-03-05T08:47:20.782Z,34.00
2023-03-05T08:49:47.604Z,32.90
2023-03-05T08:52:14.310Z,36.70
2023-03-05T08:54:41.042Z,34.30
2023-03-05T08:57:08.585Z,34.60
2023-03-05T08:59:35.888Z,34.50
2023-03-05T09:02:03.219Z,34.30
2023-03-05T09:04:30.056Z,31.90
2023-03-05T09:06:57.583Z,34.70
2023-03-05T09:09:24.809Z,35.20
2023-03-05T09:11:52.087Z,33.80
2023-03-05T09:14:19.014Z,33.70
2023-03-05T09:16:45.883Z,32.50
2023-03-05T09:19:15.352Z,35.20
2023-03-05T09:21:42.486Z,37.70
2023-03-05T09:24:09.300Z,32.00
2023-03-05T09:26:36.015Z,31.80
2023-03-05T09:29:03.511Z,32.40
2023-03-05T09:31:30.311Z,32.40
2023-03-05T09:33:57.059Z,31.30
2023-03-05T09:36:29.534Z,32.90
2023-03-05T09:38:56.485Z,34.60
2023-03-05T09:41:32.491Z,31.80
2023-03-05T09:43:59.477Z,33.50
2023-03-05T09:46:31.916Z,33.70
2023-03-05T09:49:12.300Z,32.00
2023-03-05T09:51:41.464Z,31.10
2023-03-05T09:54:17.517Z,33.70
2023-03-05T09:57:05.670Z,33.40
2023-03-05T10:00:02.011Z,39.10
2023-03-05T10:02:48.983Z,32.60
2023-03-05T10:05:26.280Z,37.10
2023-03-05T10:08:03.842Z,37.00
2023-03-05T10:10:42.154Z,35.10
2023-03-05T10:13:32.486Z,36.40
2023-03-05T10:16:42.320Z,34.40
2023-03-05T10:19:36.842Z,35.20
2023-03-05T10:22:31.037Z,35.80
2023-03-05T10:25:09.757Z,35.60
2023-03-05T10:27:43.452Z,33.80
2023-03-05T10:30:19.802Z,35.70
2023-03-05T10:32:57.025Z,39.20
2023-03-05T10:35:40.906Z,34.70
2023-03-05T10:38:33.201Z,31.70
2023-03-05T10:41:28.382Z,25.30
2023-03-05T10:44:04.212Z,35.60
2023-03-05T10:46:37.678Z,29.60
2023-03-05T10:49:21.221Z,20.10
2023-03-05T10:51:53.341Z,31.20
2023-03-05T10:54:30.348Z,30.90
2023-03-05T10:57:09.802Z,31.60
2023-03-05T10:59:36.873Z,29.30
2023-03-05T11:02:10.205Z,33.50
2023-03-05T11:04:39.790Z,34.00
2023-03-05T11:07:08.837Z,30.60
2023-03-05T11:09:35.642Z,34.40
2023-03-05T11:12:10.459Z,29.30
2023-03-05T11:14:40.512Z,31.60
2023-03-05T11:17:30.221Z,33.70
2023-03-05T11:19:58.734Z,32.80
2023-03-05T11:22:26.023Z,39.00
2023-03-05T11:25:15.949Z,31.70
2023-03-05T11:27:54.571Z,38.50
2023-03-05T11:30:26.271Z,35.10
2023-03-05T11:33:20.527Z,34.60
2023-03-05T11:35:49.399Z,32.70
2023-03-05T11:38:26.447Z,38.70
2023-03-05T11:40:56.270Z,34.90
2023-03-05T11:43:26.021Z,34.60
2023-03-05T11:46:05.497Z,34.70
2023-03-05T11:48:36.669Z,32.70
2023-03-05T11:51:13.481Z,34.70
2023-03-05T11:53:40.450Z,32.40
2023-03-05T11:56:22.320Z,32.50
2023-03-05T11:59:02.926Z,37.70
2023-03-05T12:01:34.569Z,32.90
2023-03-05T12:04:01.719Z,30.20
2023-03-05T12:06:34.947Z,35.60
2023-03-05T12:09:37.863Z,33.10
2023-03-05T12:12:18.651Z,32.50
2023-03-05T12:15:12.853Z,31.30
2023-03-05T12:17:50.737Z,35.10
2023-03-05T12:20:50.004Z,35.10
2023-03-05T12:23:21.738Z,35.90
2023-03-05T12:25:57.898Z,38.00
2023-03-05T12:28:37.062Z,32.20
2023-03-05T12:31:40.436Z,33.30
2023-03-05T12:34:35.151Z,38.50
2023-03-05T12:37:01.876Z,41.10
2023-03-05T12:39:41.785Z,35.50
2023-03-05T12:42:30.256Z,27.80
2023-03-05T12:45:16.185Z,33.20
2023-03-05T12:47:45.147Z,36.70
2023-03-05T12:50:26.907Z,33.90
2023-03-05T12:52:54.106Z,38.00
2023-03-05T12:55:45.707Z,32.40
2023-03-05T12:58:32.587Z,35.10
2023-03-05T13:01:03.211Z,34.60
2023-03-05T13:03:37.556Z,33.00
2023-03-05T13:06:06.730Z,35.50
2023-03-05T13:08:36.199Z,36.00
2023-03-05T13:11:06.777Z,36.00
2023-03-05T13:13:37.441Z,36.30
2023-03-05T13:16:05.024Z,32.10
2023-03-05T13:18:32.999Z,41.80
2023-03-05T13:21:13.001Z,38.00
2023-03-05T13:24:00.006Z,36.40
2023-03-05T13:26:29.087Z,38.60
2023-03-05T13:29:19.360Z,36.80
2023-03-05T13:31:48.989Z,33.70
2023-03-05T13:34:47.379Z,41.60
2023-03-05T13:37:33.983Z,38.30
2023-03-05T13:40:20.893Z,34.80
2023-03-05T13:42:49.505Z,35.20
2023-03-05T13:45:32.377Z,36.30
2023-03-05T13:48:02.055Z,41.20
2023-03-05T13:50:33.412Z,40.30
2023-03-05T13:53:26.079Z,39.90
2023-03-05T13:55:57.464Z,41.60
2023-03-05T13:58:52.544Z,30.10
2023-03-05T14:01:30.125Z,37.40
2023-03-05T14:04:16.605Z,42.10
2023-03-05T14:07:03.612Z,40.60
2023-03-05T14:09:38.946Z,38.20
2023-03-05T14:12:33.584Z,34.50
2023-03-05T14:15:02.325Z,37.00
2023-03-05T14:17:30.656Z,38.00
2023-03-05T14:20:09.778Z,37.60
2023-03-05T14:22:38.710Z,37.50
2023-03-05T14:25:07.265Z,36.00
2023-03-05T14:27:36.650Z,36.80
2023-03-05T14:30:05.537Z,40.50
2023-03-05T14:32:36.038Z,36.70
2023-03-05T14:35:06.159Z,41.30
2023-03-05T14:37:36.834Z,37.90
2023-03-05T14:40:07.226Z,40.20
2023-03-05T14:42:58.604Z,40.90
2023-03-05T14:45:38.083Z,37.00
2023-03-05T14:48:16.373Z,40.00
2023-03-05T14:50:46.786Z,37.80
2023-03-05T14:53:20.408Z,40.10
2023-03-05T14:55:51.667Z,36.80
2023-03-05T14:58:21.925Z,30.90
2023-03-05T15:00:51.198Z,38.00
2023-03-05T15:03:19.958Z,39.10
2023-03-05T15:05:51.108Z,34.20
2023-03-05T15:08:25.740Z,33.20
2023-03-05T15:10:53.111Z,40.40
2023-03-05T15:13:19.940Z,37.00
2023-03-05T15:15:49.128Z,38.60
2023-03-05T15:18:19.076Z,40.00
2023-03-05T15:20:48.839Z,41.00
2023-03-05T15:23:17.279Z,42.30
2023-03-05T15:25:44.302Z,36.50
2023-03-05T15:28:11.181Z,39.20
2023-03-05T15:30:41.804Z,36.60
2023-03-05T15:33:11.988Z,38.70
2023-03-05T15:35:39.120Z,40.00
2023-03-05T15:38:06.337Z,38.30
2023-03-05T15:40:33.074Z,37.20
2023-03-05T15:43:00.842Z,36.30
2023-03-05T15:45:28.080Z,41.10
2023-03-05T15:47:55.086Z,44.90
2023-03-05T15:50:22.451Z,40.10
2023-03-05T15:52:49.754Z,41.40
2023-03-05T15:55:18.582Z,40.30
2023-03-05T15:57:48.927Z,44.90
2023-03-05T16:00:18.724Z,45.10
2023-03-05T16:02:45.490Z,42.20
2023-03-05T16:05:12.223Z,39.40
2023-03-05T16:07:42.266Z,42.60
2023-03-05T16:10:13.981Z,41.70
2023-03-05T16:12:43.066Z,41.80
2023-03-05T16:15:17.377Z,41.70
2023-03-05T16:17:47.560Z,44.10
2023-03-05T16:20:15.771Z,44.40
2023-03-05T16:22:43.460Z,45.40
2023-03-05T16:25:10.540Z,45.10
2023-03-05T16:27:38.364Z,44.30
2023-03-05T16:30:06.339Z,47.10
2023-03-05T16:32:33.377Z,44.30
2023-03-05T16:35:00.140Z,45.20
2023-03-05T16:37:26.873Z,44.30
2023-03-05T16:39:57.665Z,46.50
2023-03-05T16:42:24.413Z,44.20
2023-03-05T16:44:51.940Z,48.00
2023-03-05T16:47:18.643Z,50.70
2023-03-05T16:49:45.251Z,49.10
2023-03-05T16:52:18.737Z,51.30
2023-03-05T16:54:46.848Z,48.70
2023-03-05T16:57:14.062Z,49.70
2023-03-05T16:59:40.962Z,50.10
2023-03-05T17:02:08.028Z,46.20
2023-03-05T17:04:34.991Z,52.90
2023-03-05T17:07:03.527Z,53.70
2023-03-05T17:09:30.601Z,56.50
2023-03-05T17:11:57.234Z,55.90
2023-03-05T17:14:24.185Z,50.80
2023-03-05T17:16:51.136Z,54.90
2023-03-05T17:19:18.384Z,52.10
2023-03-05T17:21:45.397Z,50.00
2023-03-05T17:24:12.193Z,47.80
2023-03-05T17:26:38.905Z,49.20
2023-03-05T17:29:06.957Z,49.60
2023-03-05T17:31:36.794Z,45.10
2023-03-05T17:34:04.275Z,46.50
2023-03-05T17:36:32.716Z,48.20
2023-03-05T17:38:59.338Z,45.10
2023-03-05T17:41:26.042Z,49.60
2023-03-05T17:43:52.898Z,48.40
2023-03-05T17:46:19.635Z,51.70
2023-03-05T17:48:46.370Z,46.10
2023-03-05T17:51:16.406Z,46.30
2023-03-05T17:53:43.871Z,46.00
2023-03-05T17:56:12.935Z,48.00
2023-03-05T17:58:40.923Z,49.00
2023-03-05T18:01:08.103Z,49.10
2023-03-05T18:03:36.519Z,44.50
2023-03-05T18:06:03.883Z,48.60
2023-03-05T18:08:30.904Z,43.50
2023-03-05T18:10:57.651Z,42.90
2023-03-05T18:13:26.118Z,48.80
2023-03-05T18:15:53.161Z,45.50
2023-03-05T18:18:19.931Z,46.60
2023-03-05T18:20:48.727Z,49.30
2023-03-05T18:23:16.931Z,49.40
2023-03-05T18:25:44.482Z,48.20
2023-03-05T18:28:13.550Z,48.10
2023-03-05T18:30:42.092Z,48.00
2023-03-05T18:33:18.669Z,51.00
2023-03-05T18:35:46.007Z,47.20
2023-03-05T18:38:12.847Z,48.40
2023-03-05T18:40:39.926Z,45.30
2023-03-05T18:43:06.666Z,43.30
2023-03-05T18:45:34.287Z,51.90
2023-03-05T18:48:01.083Z,55.10
2023-03-05T18:50:28.277Z,53.20
2023-03-05T18:52:55.425Z,55.20
2023-03-05T18:55:27.880Z,50.20
2023-03-05T18:57:55.439Z,52.20
2023-03-05T19:00:29.143Z,46.80
2023-03-05T19:02:56.645Z,45.60
2023-03-05T19:05:27.964Z,48.50
2023-03-05T19:07:55.614Z,50.30
2023-03-05T19:10:23.204Z,48.00
2023-03-05T19:13:23.336Z,49.30
2023-03-05T19:15:58.518Z,47.70
2023-03-05T19:18:36.086Z,50.20
2023-03-05T19:21:07.185Z,50.50
2023-03-05T19:23:33.836Z,46.40
2023-03-05T19:26:02.292Z,50.70
2023-03-05T19:28:30.309Z,49.20
2023-03-05T19:30:57.175Z,45.40
2023-03-05T19:33:25.041Z,38.90
2023-03-05T19:35:52.108Z,45.20
2023-03-05T19:38:18.854Z,47.70
2023-03-05T19:40:45.592Z,47.20
2023-03-05T19:43:12.302Z,41.80
2023-03-05T19:45:39.206Z,40.00
2023-03-05T19:48:06.139Z,48.10
2023-03-05T19:50:34.409Z,44.50
2023-03-05T19:53:01.638Z,46.00
2023-03-05T19:55:28.481Z,48.00
2023-03-05T19:57:55.298Z,45.10
2023-03-05T20:00:22.404Z,45.50
2023-03-05T20:02:49.089Z,48.10
2023-03-05T20:05:15.954Z,40.40
2023-03-05T20:07:42.629Z,38.70
2023-03-05T20:10:10.363Z,37.50
2023-03-05T20:12:39.253Z,39.10
2023-03-05T20:15:06.532Z,42.00
2023-03-05T20:17:33.248Z,36.70
2023-03-05T20:20:00.284Z,36.90
2023-03-05T20:22:27.166Z,38.30
2023-03-05T20:24:53.930Z,39.70
2023-03-05T20:27:20.739Z,40.00
2023-03-05T20:29:47.525Z,40.40
2023-03-05T20:32:15.286Z,41.80
2023-03-05T20:34:42.121Z,36.80
2023-03-05T20:37:08.950Z,37.60
2023-03-05T20:39:35.681Z,36.80
2023-03-05T20:42:02.378Z,41.30
2023-03-05T20:44:29.228Z,41.90
2023-03-05T20:47:37.728Z,42.70
2023-03-05T20:50:04.848Z,40.80
2023-03-05T20:52:31.655Z,39.10
2023-03-05T20:54:59.157Z,41.10
2023-03-05T20:57:25.890Z,33.70
2023-03-05T20:59:52.589Z,32.40
2023-03-05T21:02:19.388Z,37.80
2023-03-05T21:04:46.224Z,39.30
2023-03-05T21:07:12.940Z,33.70
2023-03-05T21:09:39.622Z,43.00
2023-03-05T21:12:08.224Z,41.80
2023-03-05T21:14:38.090Z,43.60
2023-03-05T21:17:05.318Z,47.40
2023-03-05T21:19:33.769Z,42.50
2023-03-05T21:22:00.743Z,38.20
2023-03-05T21:25:04.419Z,37.10
2023-03-05T21:30:02.972Z,48.10
2023-03-05T21:32:29.747Z,49.90
2023-03-05T21:34:56.824Z,42.90
2023-03-05T21:37:24.237Z,44.40
2023-03-05T21:39:50.917Z,46.70
2023-03-05T21:42:17.619Z,48.00
2023-03-05T21:44:44.370Z,43.20
2023-03-05T21:47:11.093Z,42.00
2023-03-05T21:49:37.798Z,46.40
2023-03-05T21:52:11.900Z,40.00
2023-03-05T21:54:39.888Z,43.70
2023-03-05T21:57:08.946Z,44.80
2023-03-05T21:59:35.711Z,43.00
2023-03-05T22:02:02.390Z,44.90
2023-03-05T22:04:29.038Z,45.50
2023-03-05T22:06:56.769Z,47.10
2023-03-05T22:09:23.430Z,49.20
2023-03-05T22:11:50.105Z,43.30
2023-03-05T22:14:17.680Z,45.20
2023-03-05T22:16:44.910Z,42.70
2023-03-05T22:19:11.725Z,44.00
2023-03-05T22:21:38.351Z,47.00
2023-03-05T22:24:05.168Z,46.60
2023-03-05T22:26:37.878Z,50.50
2023-03-05T22:29:06.338Z,44.10
2023-03-05T22:31:33.065Z,41.40
2023-03-05T22:33:59.798Z,43.80
2023-03-05T22:36:26.484Z,47.10
2023-03-05T22:38:53.367Z,43.70
2023-03-05T22:41:21.188Z,45.60
2023-03-05T22:43:49.866Z,44.20
2023-03-05T22:46:23.153Z,45.00
2023-03-05T22:48:51.000Z,46.20
2023-03-05T22:51:18.786Z,43.30
2023-03-05T22:53:46.306Z,46.60
2023-03-05T22:56:16.171Z,40.90
2023-03-05T22:58:43.326Z,42.50
2023-03-05T23:01:21.876Z,44.10
2023-03-05T23:06:59.429Z,37.90
2023-03-05T23:09:26.273Z,43.90
2023-03-05T23:11:52.944Z,41.20
2023-03-05T23:14:19.603Z,41.00
2023-03-05T23:16:46.315Z,39.90
2023-03-05T23:19:13.075Z,40.10
2023-03-05T23:21:39.738Z,40.20
2023-03-05T23:24:07.082Z,41.30
2023-03-05T23:26:33.799Z,37.20
2023-03-05T23:29:00.585Z,35.90
2023-03-05T23:31:27.257Z,31.60
2023-03-05T23:33:54.003Z,38.60
2023-03-05T23:36:24.635Z,37.00
2023-03-05T23:38:57.623Z,35.50
2023-03-05T23:41:24.455Z,36.80
2023-03-05T23:43:51.058Z,43.20
2023-03-05T23:46:17.840Z,37.40
2023-03-05T23:48:44.565Z,33.50
2023-03-05T23:51:11.492Z,32.70
2023-03-05T23:53:38.178Z,32.90
2023-03-05T23:56:13.667Z,39.60
2023-03-05T23:58:40.304Z,38.30
